Dades meteomassalio
Diari Summary for Gener 30, 2017 Units:  Metric    English   Both
« Previous Day
Next Day »
Diari Semanal Mensual Anual Personalitzat
  Maxima: Minima: Mijana:
Temperatura: 17.7 °C 4.6 °C 10 °C
Rosada: 10.7 °C 3.4 °C 7.1 °C
Humitat: 93 % 60 % 83 %
Velocitat del vent: 18.5 km/h 0.0 km/h 1.3 km/h
Racha vent: 18.5 km/h - -
Vent:- - West
Pressio: 1024.9 hPa 1019.5 hPa -
Pluja: 0.0 mm    
Historical Graphs
 
 
Tabular Data for Gener 30, 2017
Time Temperature Dew Point Pressure Wind Wind Speed Wind Gust Humidity Rainfall Rate (Hourly) solar Conditions
00:03 7.7 °C 5.3 °C 1024.6 hPa Calm     85 % 0.0 mm 0.0 W/m2 CLR
00:08 7.7 °C 5.3 °C 1024.9 hPa Calm     85 % 0.0 mm 0.0 W/m2 CLR
00:13 7.6 °C 5.2 °C 1024.9 hPa Calm     85 % 0.0 mm 0.0 W/m2 CLR
00:18 7.6 °C 5.2 °C 1024.9 hPa Calm     85 % 0.0 mm 0.0 W/m2 CLR
00:23 7.5 °C 5.3 °C 1024.9 hPa Calm     86 % 0.0 mm 0.0 W/m2 CLR
00:28 7.4 °C 5.3 °C 1024.9 hPa Calm     86 % 0.0 mm 0.0 W/m2 CLR
00:33 7.3 °C 5.2 °C 1024.6 hPa Calm     86 % 0.0 mm 0.0 W/m2 CLR
00:38 7.3 °C 5.3 °C 1024.6 hPa Calm     87 % 0.0 mm 0.0 W/m2 CLR
00:43 7.3 °C 5.3 °C 1024.6 hPa Calm     87 % 0.0 mm 0.0 W/m2 CLR
00:49 7.3 °C 5.3 °C 1024.6 hPa Calm     87 % 0.0 mm 0.0 W/m2 CLR
00:54 7.2 °C 5.2 °C 1024.6 hPa Calm     87 % 0.0 mm 0.0 W/m2 CLR
00:59 7.1 °C 5.1 °C 1024.6 hPa Calm     87 % 0.0 mm 0.0 W/m2 CLR
01:04 7.1 °C 5.2 °C 1024.6 hPa Calm     88 % 0.0 mm 0.0 W/m2 CLR
01:09 7.0 °C 5.2 °C 1024.6 hPa Calm     88 % 0.0 mm 0.0 W/m2 CLR
01:14 7.0 °C 5.2 °C 1024.6 hPa Calm     88 % 0.0 mm 0.0 W/m2 CLR
01:19 6.9 °C 5.1 °C 1024.6 hPa Calm     88 % 0.0 mm 0.0 W/m2 CLR
01:24 6.9 °C 5.1 °C 1024.3 hPa Calm     88 % 0.0 mm 0.0 W/m2 CLR
01:29 6.9 °C 5.1 °C 1024.3 hPa Calm     88 % 0.0 mm 0.0 W/m2 CLR
01:34 6.9 °C 5.2 °C 1024.3 hPa Calm     89 % 0.0 mm 0.0 W/m2 CLR
01:39 6.8 °C 5.0 °C 1024.3 hPa Calm     88 % 0.0 mm 0.0 W/m2 CLR
01:44 6.8 °C 5.1 °C 1024.3 hPa Calm     89 % 0.0 mm 0.0 W/m2 CLR
01:49 6.8 °C 5.1 °C 1024.3 hPa Calm     89 % 0.0 mm 0.0 W/m2 CLR
01:54 6.8 °C 5.2 °C 1023.9 hPa Calm     89 % 0.0 mm 0.0 W/m2 CLR
01:59 6.8 °C 5.1 °C 1023.9 hPa Calm     89 % 0.0 mm 0.0 W/m2 CLR
02:04 6.8 °C 5.1 °C 1023.9 hPa Calm     89 % 0.0 mm 0.0 W/m2 CLR
02:09 6.7 °C 5.1 °C 1023.9 hPa Calm     89 % 0.0 mm 0.0 W/m2 CLR
02:14 6.7 °C 5.0 °C 1023.9 hPa Calm     89 % 0.0 mm 0.0 W/m2 CLR
02:19 6.7 °C 5.0 °C 1023.9 hPa Calm     89 % 0.0 mm 0.0 W/m2 CLR
02:24 6.6 °C 4.9 °C 1023.9 hPa Calm     89 % 0.0 mm 0.0 W/m2 CLR
02:29 6.5 °C 4.8 °C 1023.9 hPa Calm     89 % 0.0 mm 0.0 W/m2 CLR
02:34 6.4 °C 4.7 °C 1023.9 hPa Calm     89 % 0.0 mm 0.0 W/m2 CLR
02:39 6.3 °C 4.8 °C 1023.9 hPa Calm     90 % 0.0 mm 0.0 W/m2 CLR
02:44 6.3 °C 4.6 °C 1023.9 hPa Calm     89 % 0.0 mm 0.0 W/m2 CLR
02:49 6.1 °C 4.6 °C 1023.9 hPa Calm     90 % 0.0 mm 0.0 W/m2 CLR
02:54 6.1 °C 4.6 °C 1023.9 hPa Calm     90 % 0.0 mm 0.0 W/m2 CLR
02:59 6.0 °C 4.5 °C 1023.9 hPa Calm     90 % 0.0 mm 0.0 W/m2 CLR
03:04 5.9 °C 4.4 °C 1023.9 hPa Calm     90 % 0.0 mm 0.0 W/m2 CLR
03:09 5.7 °C 4.2 °C 1023.9 hPa Calm     90 % 0.0 mm 0.0 W/m2 CLR
03:14 5.7 °C 4.2 °C 1023.9 hPa Calm     90 % 0.0 mm 0.0 W/m2 CLR
03:19 5.6 °C 4.3 °C 1023.9 hPa Calm     91 % 0.0 mm 0.0 W/m2 CLR
03:24 5.6 °C 4.3 °C 1023.9 hPa Calm     91 % 0.0 mm 0.0 W/m2 CLR
03:29 5.5 °C 4.2 °C 1023.9 hPa Calm     91 % 0.0 mm 0.0 W/m2 CLR
03:34 5.3 °C 3.8 °C 1023.9 hPa Calm     90 % 0.0 mm 0.0 W/m2 CLR
03:39 5.2 °C 3.8 °C 1023.9 hPa Calm     91 % 0.0 mm 0.0 W/m2 CLR
03:44 5.1 °C 3.7 °C 1023.9 hPa Calm     91 % 0.0 mm 0.0 W/m2 CLR
03:49 4.9 °C 3.6 °C 1023.9 hPa Calm     91 % 0.0 mm 0.0 W/m2 CLR
03:54 4.9 °C 3.6 °C 1023.9 hPa Calm     91 % 0.0 mm 0.0 W/m2 CLR
03:59 4.8 °C 3.5 °C 1023.9 hPa Calm     91 % 0.0 mm 0.0 W/m2 CLR
04:04 4.8 °C 3.7 °C 1023.9 hPa Calm     92 % 0.0 mm 0.0 W/m2 CLR
04:09 4.9 °C 3.8 °C 1023.9 hPa Calm     92 % 0.0 mm 0.0 W/m2 CLR
04:17 5.0 °C 3.8 °C 1023.9 hPa Calm     92 % 0.0 mm 0.0 W/m2 CLR
04:22 5.1 °C 3.9 °C 1023.9 hPa Calm     92 % 0.0 mm 0.0 W/m2 CLR
04:25 5.2 °C 4.0 °C 1023.9 hPa Calm     92 % 0.0 mm 0.0 W/m2 CLR
04:27 5.3 °C 4.1 °C 1023.9 hPa Calm     92 % 0.0 mm 0.0 W/m2 CLR
04:32 5.4 °C 4.2 °C 1023.9 hPa Calm     92 % 0.0 mm 0.0 W/m2 CLR
04:37 5.6 °C 4.3 °C 1023.9 hPa Calm     92 % 0.0 mm 0.0 W/m2 CLR
04:42 5.6 °C 4.3 °C 1023.9 hPa Calm     92 % 0.0 mm 0.0 W/m2 CLR
04:47 5.5 °C 4.3 °C 1023.9 hPa Calm     92 % 0.0 mm 0.0 W/m2 CLR
04:52 5.4 °C 4.1 °C 1023.9 hPa Calm     91 % 0.0 mm 0.0 W/m2 CLR
04:57 5.3 °C 4.0 °C 1023.9 hPa Calm     91 % 0.0 mm 0.0 W/m2 CLR
05:02 5.3 °C 4.0 °C 1023.9 hPa Calm     91 % 0.0 mm 0.0 W/m2 CLR
05:07 5.3 °C 4.1 °C 1023.9 hPa Calm     92 % 0.0 mm 0.0 W/m2 CLR
05:12 5.3 °C 4.1 °C 1023.9 hPa Calm     92 % 0.0 mm 0.0 W/m2 CLR
05:17 5.3 °C 4.1 °C 1023.9 hPa Calm     92 % 0.0 mm 0.0 W/m2 CLR
05:22 5.4 °C 4.2 °C 1023.9 hPa Calm     92 % 0.0 mm 0.0 W/m2 CLR
05:27 5.4 °C 4.2 °C 1023.9 hPa Calm     92 % 0.0 mm 0.0 W/m2 CLR
05:32 5.4 °C 4.2 °C 1023.9 hPa Calm     92 % 0.0 mm 0.0 W/m2 CLR
05:37 5.5 °C 4.3 °C 1023.9 hPa Calm     92 % 0.0 mm 0.0 W/m2 CLR
05:42 5.5 °C 4.3 °C 1023.9 hPa Calm     92 % 0.0 mm 0.0 W/m2 CLR
05:47 5.5 °C 4.3 °C 1023.9 hPa Calm     92 % 0.0 mm 0.0 W/m2 CLR
05:52 5.5 °C 4.3 °C 1023.9 hPa Calm     92 % 0.0 mm 0.0 W/m2 CLR
05:57 5.4 °C 4.2 °C 1023.9 hPa Calm     92 % 0.0 mm 0.0 W/m2 CLR
06:02 5.4 °C 4.2 °C 1023.6 hPa Calm     92 % 0.0 mm 0.0 W/m2 CLR
06:07 5.4 °C 4.2 °C 1023.9 hPa Calm     92 % 0.0 mm 0.0 W/m2 CLR
06:12 5.4 °C 4.2 °C 1023.6 hPa Calm     92 % 0.0 mm 0.0 W/m2 CLR
06:17 5.3 °C 4.1 °C 1023.6 hPa Calm     92 % 0.0 mm 0.0 W/m2 CLR
06:22 5.1 °C 3.9 °C 1023.9 hPa Calm     92 % 0.0 mm 0.0 W/m2 CLR
06:27 5.0 °C 3.8 °C 1023.6 hPa Calm     92 % 0.0 mm 0.0 W/m2 CLR
06:32 4.9 °C 3.8 °C 1023.6 hPa Calm     92 % 0.0 mm 0.0 W/m2 CLR
06:37 4.9 °C 3.7 °C 1023.6 hPa Calm     92 % 0.0 mm 0.0 W/m2 CLR
06:42 4.9 °C 3.8 °C 1023.6 hPa Calm     92 % 0.0 mm 0.0 W/m2 CLR
06:47 4.9 °C 3.7 °C 1023.6 hPa Calm     92 % 0.0 mm 0.0 W/m2 CLR
06:52 4.8 °C 3.7 °C 1023.6 hPa Calm     92 % 0.0 mm 0.0 W/m2 CLR
06:57 4.8 °C 3.7 °C 1023.6 hPa Calm     92 % 0.0 mm 0.0 W/m2 CLR
07:02 4.7 °C 3.6 °C 1023.6 hPa Calm     92 % 0.0 mm 0.0 W/m2 CLR
07:07 4.6 °C 3.4 °C 1023.6 hPa Calm     92 % 0.0 mm 0.0 W/m2 CLR
07:12 4.7 °C 3.5 °C 1023.6 hPa Calm     92 % 0.0 mm 0.0 W/m2 CLR
07:17 4.7 °C 3.7 °C 1023.6 hPa Calm     93 % 0.0 mm 0.0 W/m2 CLR
07:22 4.7 °C 3.6 °C 1023.6 hPa Calm     93 % 0.0 mm 0.0 W/m2 CLR
07:27 4.7 °C 3.7 °C 1023.6 hPa Calm     93 % 0.0 mm 0.0 W/m2 CLR
07:32 4.8 °C 3.8 °C 1023.6 hPa Calm     93 % 0.0 mm 0.0 W/m2 CLR
07:37 4.9 °C 3.8 °C 1023.6 hPa Calm     93 % 0.0 mm 0.0 W/m2 CLR
07:42 4.8 °C 3.6 °C 1023.6 hPa Calm     92 % 0.0 mm 0.0 W/m2 CLR
07:47 4.6 °C 3.4 °C 1023.6 hPa Calm     92 % 0.0 mm 0.0 W/m2 CLR
07:52 4.6 °C 3.6 °C 1023.6 hPa Calm     93 % 0.0 mm 0.0 W/m2 CLR
07:57 4.8 °C 3.8 °C 1023.6 hPa Calm     93 % 0.0 mm 0.0 W/m2 CLR
08:02 4.8 °C 3.8 °C 1023.6 hPa Calm     93 % 0.0 mm 0.0 W/m2 OVC
08:07 4.8 °C 3.7 °C 1023.6 hPa Calm     93 % 0.0 mm 0.0 W/m2 OVC
08:12 4.7 °C 3.7 °C 1023.6 hPa Calm     93 % 0.0 mm 0.0 W/m2 OVC
08:17 4.7 °C 3.6 °C 1023.6 hPa Calm     93 % 0.0 mm 5.0 W/m2 OVC
08:22 4.7 °C 3.6 °C 1023.6 hPa Calm     93 % 0.0 mm 9.0 W/m2 BKN
08:27 4.7 °C 3.7 °C 1023.6 hPa Calm     93 % 0.0 mm 11.0 W/m2 BKN
08:32 4.8 °C 3.8 °C 1023.6 hPa Calm     93 % 0.0 mm 18.0 W/m2 BKN
08:37 4.9 °C 3.9 °C 1023.6 hPa Calm     93 % 0.0 mm 21.0 W/m2 BKN
08:42 5.1 °C 4.0 °C 1023.6 hPa Calm     93 % 0.0 mm 28.0 W/m2 BKN
08:47 5.1 °C 4.1 °C 1023.6 hPa Calm     93 % 0.0 mm 37.0 W/m2 BKN
08:52 5.3 °C 4.2 °C 1023.6 hPa Calm     93 % 0.0 mm 47.0 W/m2 SCT
08:57 5.4 °C 4.4 °C 1023.6 hPa Calm     93 % 0.0 mm 51.0 W/m2 SCT
09:02 5.6 °C 4.5 °C 1023.6 hPa Calm     93 % 0.0 mm 95.0 W/m2 FEW
09:07 5.7 °C 4.7 °C 1023.6 hPa Calm     93 % 0.0 mm 109.0 W/m2 CLR
09:12 5.9 °C 4.8 °C 1023.6 hPa Calm     93 % 0.0 mm 135.0 W/m2 CLR
09:17 6.3 °C 5.2 °C 1023.6 hPa Calm     93 % 0.0 mm 171.0 W/m2 CLR
09:22 6.7 °C 5.6 °C 1023.6 hPa Calm     93 % 0.0 mm 160.0 W/m2 CLR
09:27 6.9 °C 5.8 °C 1023.6 hPa Calm     93 % 0.0 mm 113.0 W/m2 CLR
09:33 7.0 °C 5.8 °C 1023.6 hPa Calm     92 % 0.0 mm 63.0 W/m2 CLR
09:38 7.1 °C 5.8 °C 1023.9 hPa Calm     92 % 0.0 mm 56.0 W/m2 FEW
09:43 7.2 °C 5.9 °C 1023.6 hPa Calm     92 % 0.0 mm 98.0 W/m2 FEW
09:48 7.3 °C 6.1 °C 1023.6 hPa Calm     92 % 0.0 mm 77.0 W/m2 FEW
09:53 7.4 °C 6.1 °C 1023.6 hPa Calm     91 % 0.0 mm 111.0 W/m2 CLR
09:58 7.7 °C 6.4 °C 1023.9 hPa Calm     92 % 0.0 mm 86.0 W/m2 CLR
10:03 7.9 °C 6.5 °C 1023.9 hPa Calm     91 % 0.0 mm 95.0 W/m2 CLR
10:08 8.1 °C 6.7 °C 1023.9 hPa Calm     91 % 0.0 mm 153.0 W/m2 CLR
10:13 8.3 °C 6.9 °C 1023.9 hPa Calm     91 % 0.0 mm 211.0 W/m2 CLR
10:18 8.6 °C 7.2 °C 1023.6 hPa Calm     91 % 0.0 mm 236.0 W/m2 CLR
10:23 8.8 °C 7.3 °C 1023.6 hPa Calm     90 % 0.0 mm 223.0 W/m2 CLR
10:28 9.1 °C 7.3 °C 1023.6 hPa Calm     89 % 0.0 mm 248.0 W/m2 CLR
10:33 9.3 °C 7.6 °C 1023.9 hPa Calm     89 % 0.0 mm 471.0 W/m2 CLR
10:38 9.7 °C 7.8 °C 1023.9 hPa Calm     88 % 0.0 mm 185.0 W/m2 CLR
10:43 10.1 °C 8.0 °C 1023.9 hPa Calm     87 % 0.0 mm 181.0 W/m2 CLR
10:48 10.3 °C 8.1 °C 1023.9 hPa Calm     86 % 0.0 mm 167.0 W/m2 CLR
10:53 10.5 °C 8.1 °C 1023.9 hPa Calm     85 % 0.0 mm 204.0 W/m2 CLR
10:58 10.7 °C 8.3 °C 1023.9 hPa Calm     85 % 0.0 mm 227.0 W/m2 CLR
11:03 10.9 °C 8.3 °C 1023.9 hPa Calm     84 % 0.0 mm 146.0 W/m2 CLR
11:08 11.1 °C 8.3 °C 1023.9 hPa Calm     83 % 0.0 mm 171.0 W/m2 CLR
11:13 11.3 °C 8.5 °C 1023.9 hPa Calm     83 % 0.0 mm 156.0 W/m2 CLR
11:18 11.4 °C 8.4 °C 1023.9 hPa Calm     82 % 0.0 mm 148.0 W/m2 CLR
11:23 11.6 °C 8.7 °C 1023.9 hPa Calm     82 % 0.0 mm 172.0 W/m2 CLR
11:28 11.8 °C 8.6 °C 1023.9 hPa Calm     81 % 0.0 mm 232.0 W/m2 CLR
11:33 11.9 °C 8.6 °C 1023.6 hPa Calm     80 % 0.0 mm 197.0 W/m2 CLR
11:38 12.1 °C 8.8 °C 1023.6 hPa Calm     80 % 0.0 mm 251.0 W/m2 CLR
11:43 12.3 °C 8.7 °C 1023.6 hPa Calm     79 % 0.0 mm 258.0 W/m2 CLR
11:48 12.5 °C 8.9 °C 1023.6 hPa Calm     79 % 0.0 mm 387.0 W/m2 CLR
11:54 12.9 °C 9.6 °C 1023.2 hPa Calm     80 % 0.0 mm 564.0 W/m2 CLR
11:59 13.2 °C 9.3 °C 1023.2 hPa Calm     77 % 0.0 mm 272.0 W/m2 CLR
12:04 13.4 °C 9.4 °C 1023.2 hPa Calm     77 % 0.0 mm 320.0 W/m2 CLR
12:09 13.6 °C 9.4 °C 1023.2 hPa Calm     76 % 0.0 mm 276.0 W/m2 CLR
12:14 13.7 °C 9.4 °C 1022.9 hPa Calm     75 % 0.0 mm 279.0 W/m2 CLR
12:19 13.8 °C 9.4 °C 1022.9 hPa Calm     75 % 0.0 mm 251.0 W/m2 CLR
12:24 13.8 °C 9.5 °C 1022.9 hPa Calm     75 % 0.0 mm 213.0 W/m2 CLR
12:29 13.8 °C 9.5 °C 1022.6 hPa Calm     75 % 0.0 mm 181.0 W/m2 CLR
12:34 13.9 °C 9.6 °C 1022.6 hPa Calm     75 % 0.0 mm 348.0 W/m2 CLR
12:39 14.0 °C 9.4 °C 1022.6 hPa ENE 5.6 km/h 5.6 km/h 74 % 0.0 mm 476.0 W/m2 CLR
12:44 14.3 °C 9.7 °C 1022.2 hPa NE 13.0 km/h 13.0 km/h 74 % 0.0 mm 515.0 W/m2 CLR
12:49 14.5 °C 9.7 °C 1022.2 hPa NNE 7.4 km/h 7.4 km/h 73 % 0.0 mm 411.0 W/m2 CLR
12:54 14.6 °C 10.0 °C 1022.2 hPa NE 6.4 km/h 6.4 km/h 74 % 0.0 mm 338.0 W/m2 CLR
12:59 14.7 °C 9.7 °C 1022.2 hPa Calm     72 % 0.0 mm 339.0 W/m2 CLR
13:04 14.9 °C 10.2 °C 1022.2 hPa North 9.3 km/h 9.3 km/h 73 % 0.0 mm 320.0 W/m2 CLR
13:09 15.1 °C 9.9 °C 1021.9 hPa NW 9.3 km/h 9.3 km/h 71 % 0.0 mm 373.0 W/m2 CLR
13:15 15.3 °C 9.6 °C 1021.9 hPa NW 11.3 km/h 11.3 km/h 69 % 0.0 mm 320.0 W/m2 CLR
13:20 15.3 °C 10.1 °C 1021.6 hPa WNW 9.3 km/h 9.3 km/h 71 % 0.0 mm 348.0 W/m2 CLR
13:25 15.6 °C 9.7 °C 1021.6 hPa WNW 16.1 km/h 16.1 km/h 68 % 0.0 mm 540.0 W/m2 CLR
13:30 15.7 °C 10.0 °C 1021.6 hPa WNW 7.4 km/h 7.4 km/h 69 % 0.0 mm 543.0 W/m2 CLR
13:35 15.9 °C 10.5 °C 1021.2 hPa NW 11.1 km/h 11.1 km/h 70 % 0.0 mm 563.0 W/m2 CLR
13:40 15.8 °C 9.9 °C 1021.2 hPa NW 16.7 km/h 16.7 km/h 68 % 0.0 mm 422.0 W/m2 CLR
13:45 15.6 °C 10.2 °C 1021.2 hPa NW 18.5 km/h 18.5 km/h 70 % 0.0 mm 323.0 W/m2 CLR
13:50 15.6 °C 10.1 °C 1021.2 hPa NW 13.0 km/h 13.0 km/h 70 % 0.0 mm 624.0 W/m2 CLR
13:55 15.8 °C 10.4 °C 1020.9 hPa NW 9.7 km/h 9.7 km/h 70 % 0.0 mm 606.0 W/m2 CLR
14:00 16.1 °C 10.4 °C 1020.9 hPa NW 11.3 km/h 11.3 km/h 69 % 0.0 mm 656.0 W/m2 CLR
14:05 16.3 °C 10.1 °C 1020.9 hPa WNW 11.3 km/h 11.3 km/h 67 % 0.0 mm 343.0 W/m2 CLR
14:10 16.3 °C 10.1 °C 1020.5 hPa NW 13.0 km/h 13.0 km/h 67 % 0.0 mm 592.0 W/m2 CLR
14:15 16.3 °C 10.1 °C 1020.5 hPa NW 7.4 km/h 7.4 km/h 67 % 0.0 mm 547.0 W/m2 CLR
14:20 16.4 °C 10.7 °C 1020.5 hPa NW 13.0 km/h 13.4 km/h 69 % 0.0 mm 476.0 W/m2 CLR
14:25 16.4 °C 10.4 °C 1020.2 hPa NW 7.4 km/h 7.4 km/h 68 % 0.0 mm 506.0 W/m2 CLR
14:30 16.5 °C 10.3 °C 1020.2 hPa NW 13.0 km/h 13.0 km/h 67 % 0.0 mm 466.0 W/m2 CLR
14:35 16.6 °C 10.2 °C 1020.2 hPa NW 11.1 km/h 11.1 km/h 66 % 0.0 mm 380.0 W/m2 CLR
14:40 16.8 °C 10.6 °C 1020.2 hPa NW 8.0 km/h 8.0 km/h 67 % 0.0 mm 513.0 W/m2 CLR
14:45 16.6 °C 10.2 °C 1020.2 hPa NW 11.3 km/h 11.3 km/h 66 % 0.0 mm 522.0 W/m2 CLR
14:50 16.6 °C 10.4 °C 1020.2 hPa NW 13.0 km/h 13.0 km/h 67 % 0.0 mm 555.0 W/m2 CLR
14:55 16.6 °C 10.2 °C 1020.2 hPa NNW 6.4 km/h 6.4 km/h 66 % 0.0 mm 283.0 W/m2 CLR
15:00 16.7 °C 10.3 °C 1019.9 hPa Calm     66 % 0.0 mm 297.0 W/m2 CLR
15:05 16.7 °C 10.1 °C 1019.9 hPa WNW 5.6 km/h 5.6 km/h 65 % 0.0 mm 357.0 W/m2 CLR
15:10 16.7 °C 9.8 °C 1019.9 hPa WNW 3.7 km/h 3.7 km/h 64 % 0.0 mm 227.0 W/m2 CLR
15:15 16.6 °C 10.2 °C 1019.9 hPa WNW 11.3 km/h 11.3 km/h 66 % 0.0 mm 218.0 W/m2 CLR
15:20 16.6 °C 9.9 °C 1019.9 hPa Calm     65 % 0.0 mm 265.0 W/m2 CLR
15:25 16.8 °C 9.9 °C 1019.9 hPa NW 9.3 km/h 9.3 km/h 64 % 0.0 mm 427.0 W/m2 CLR
15:30 16.8 °C 10.2 °C 1019.9 hPa NW 6.4 km/h 6.4 km/h 65 % 0.0 mm 457.0 W/m2 CLR
15:35 16.9 °C 9.8 °C 1019.9 hPa WNW 11.1 km/h 11.1 km/h 63 % 0.0 mm 415.0 W/m2 CLR
15:40 16.9 °C 9.6 °C 1019.9 hPa Calm     62 % 0.0 mm 285.0 W/m2 CLR
15:45 16.9 °C 9.6 °C 1019.9 hPa NW 5.6 km/h 5.6 km/h 62 % 0.0 mm 345.0 W/m2 CLR
15:50 17.1 °C 10.2 °C 1019.9 hPa Calm     64 % 0.0 mm 367.0 W/m2 CLR
15:55 17.4 °C 9.8 °C 1019.9 hPa Calm     61 % 0.0 mm 338.0 W/m2 CLR
16:00 17.6 °C 9.7 °C 1019.9 hPa Calm     60 % 0.0 mm 323.0 W/m2 CLR
16:05 17.7 °C 9.8 °C 1019.5 hPa Calm     60 % 0.0 mm 308.0 W/m2 CLR
16:10 17.7 °C 10.1 °C 1019.5 hPa Calm     61 % 0.0 mm 301.0 W/m2 CLR
16:15 17.7 °C 9.8 °C 1019.5 hPa Calm     60 % 0.0 mm 63.0 W/m2 CLR
16:20 17.4 °C 9.6 °C 1019.5 hPa Calm     60 % 0.0 mm 84.0 W/m2 FEW
16:25 17.2 °C 10.1 °C 1019.5 hPa Calm     63 % 0.0 mm 250.0 W/m2 FEW
16:30 17.4 °C 10.1 °C 1019.5 hPa Calm     62 % 0.0 mm 91.0 W/m2 CLR
16:35 17.3 °C 10.0 °C 1019.5 hPa Calm     62 % 0.0 mm 63.0 W/m2 CLR
16:40 17.1 °C 9.9 °C 1019.5 hPa Calm     63 % 0.0 mm 91.0 W/m2 FEW
16:45 16.9 °C 9.8 °C 1019.5 hPa NNE 5.6 km/h 5.6 km/h 63 % 0.0 mm 98.0 W/m2 CLR
16:50 16.7 °C 10.1 °C 1019.5 hPa Calm     65 % 0.0 mm 100.0 W/m2 CLR
16:55 16.4 °C 10.1 °C 1019.5 hPa Calm     66 % 0.0 mm 125.0 W/m2 CLR
17:00 16.4 °C 10.2 °C 1019.5 hPa Calm     67 % 0.0 mm 86.0 W/m2 CLR
17:05 16.2 °C 10.1 °C 1019.5 hPa NNE 5.6 km/h 5.6 km/h 67 % 0.0 mm 77.0 W/m2 CLR
17:13 15.9 °C 10.1 °C 1019.5 hPa Calm     68 % 0.0 mm 72.0 W/m2 FEW
17:18 15.8 °C 10.1 °C 1019.5 hPa North 5.6 km/h 5.6 km/h 69 % 0.0 mm 63.0 W/m2 SCT
17:20 15.7 °C 10.0 °C 1019.5 hPa North 6.4 km/h 6.4 km/h 69 % 0.0 mm 60.0 W/m2 SCT
17:22 15.6 °C 9.9 °C 1019.9 hPa North 1.9 km/h   69 % 0.0 mm 58.0 W/m2 SCT
17:25 15.6 °C 9.9 °C 1019.5 hPa Calm     69 % 0.0 mm 51.0 W/m2 SCT
17:30 15.4 °C 9.9 °C 1019.9 hPa Calm     70 % 0.0 mm 37.0 W/m2 BKN
17:36 15.3 °C 9.9 °C 1019.9 hPa Calm     70 % 0.0 mm 28.0 W/m2 BKN
17:41 15.3 °C 9.8 °C 1019.9 hPa Calm     70 % 0.0 mm 23.0 W/m2 BKN
17:46 15.2 °C 9.7 °C 1019.9 hPa Calm     70 % 0.0 mm 18.0 W/m2 BKN
17:51 15.1 °C 9.6 °C 1019.9 hPa Calm     70 % 0.0 mm 12.0 W/m2 BKN
17:56 15.0 °C 9.8 °C 1019.9 hPa Calm     71 % 0.0 mm 9.0 W/m2 BKN
18:01 14.9 °C 9.7 °C 1019.9 hPa Calm     71 % 0.0 mm 5.0 W/m2 OVC
18:06 14.8 °C 9.6 °C 1019.9 hPa Calm     71 % 0.0 mm 0.0 W/m2 OVC
18:11 14.7 °C 9.5 °C 1019.9 hPa Calm     71 % 0.0 mm 0.0 W/m2 OVC
18:16 14.6 °C 9.6 °C 1019.9 hPa Calm     72 % 0.0 mm 0.0 W/m2 OVC
18:21 14.5 °C 9.5 °C 1019.9 hPa Calm     72 % 0.0 mm 0.0 W/m2 OVC
18:26 14.4 °C 9.6 °C 1019.9 hPa Calm     73 % 0.0 mm 0.0 W/m2 CLR
18:31 14.3 °C 9.6 °C 1019.9 hPa Calm     73 % 0.0 mm 0.0 W/m2 CLR
18:37 14.2 °C 9.7 °C 1019.9 hPa Calm     74 % 0.0 mm 0.0 W/m2 CLR
18:42 14.2 °C 9.6 °C 1019.9 hPa Calm     74 % 0.0 mm 0.0 W/m2 CLR
18:47 14.1 °C 9.5 °C 1019.9 hPa Calm     74 % 0.0 mm 0.0 W/m2 CLR
18:52 13.9 °C 9.6 °C 1020.2 hPa Calm     75 % 0.0 mm 0.0 W/m2 CLR
18:57 13.8 °C 9.7 °C 1020.2 hPa Calm     76 % 0.0 mm 0.0 W/m2 CLR
19:03 13.7 °C 9.7 °C 1020.2 hPa Calm     77 % 0.0 mm 0.0 W/m2 CLR
19:08 13.5 °C 9.6 °C 1020.2 hPa Calm     77 % 0.0 mm 0.0 W/m2 CLR
19:13 13.3 °C 9.6 °C 1020.2 hPa Calm     78 % 0.0 mm 0.0 W/m2 CLR
19:14 13.3 °C 9.5 °C 1020.2 hPa Calm     78 % 0.0 mm 0.0 W/m2 CLR
19:18 13.1 °C 9.5 °C 1020.2 hPa Calm     79 % 0.0 mm 0.0 W/m2 CLR
19:23 12.9 °C 9.5 °C 1020.2 hPa Calm     80 % 0.0 mm 0.0 W/m2 CLR
19:28 12.7 °C 9.3 °C 1020.2 hPa Calm     80 % 0.0 mm 0.0 W/m2 CLR
19:33 12.6 °C 9.4 °C 1020.5 hPa Calm     81 % 0.0 mm 0.0 W/m2 CLR
19:38 12.5 °C 9.3 °C 1020.5 hPa Calm     81 % 0.0 mm 0.0 W/m2 CLR
19:43 12.3 °C 9.3 °C 1020.5 hPa Calm     82 % 0.0 mm 0.0 W/m2 CLR
19:48 12.1 °C 9.3 °C 1020.5 hPa Calm     83 % 0.0 mm 0.0 W/m2 CLR
19:53 11.9 °C 9.1 °C 1020.5 hPa Calm     83 % 0.0 mm 0.0 W/m2 CLR
19:58 11.8 °C 9.2 °C 1020.5 hPa Calm     84 % 0.0 mm 0.0 W/m2 CLR
20:03 11.7 °C 9.1 °C 1020.5 hPa Calm     84 % 0.0 mm 0.0 W/m2 CLR
20:08 11.6 °C 8.9 °C 1020.5 hPa Calm     84 % 0.0 mm 0.0 W/m2 CLR
20:13 11.5 °C 9.1 °C 1020.5 hPa Calm     85 % 0.0 mm 0.0 W/m2 CLR
20:18 11.3 °C 8.9 °C 1020.5 hPa Calm     85 % 0.0 mm 0.0 W/m2 CLR
20:23 11.2 °C 8.7 °C 1020.5 hPa Calm     85 % 0.0 mm 0.0 W/m2 CLR
20:28 11.0 °C 8.7 °C 1020.5 hPa Calm     86 % 0.0 mm 0.0 W/m2 CLR
20:33 10.8 °C 8.6 °C 1020.5 hPa Calm     86 % 0.0 mm 0.0 W/m2 CLR
20:38 10.8 °C 8.7 °C 1020.5 hPa Calm     87 % 0.0 mm 0.0 W/m2 CLR
20:43 10.7 °C 8.6 °C 1020.5 hPa Calm     87 % 0.0 mm 0.0 W/m2 CLR
20:48 10.6 °C 8.6 °C 1020.5 hPa Calm     87 % 0.0 mm 0.0 W/m2 CLR
20:53 10.4 °C 8.4 °C 1020.5 hPa Calm     87 % 0.0 mm 0.0 W/m2 CLR
20:58 10.3 °C 8.3 °C 1020.5 hPa Calm     87 % 0.0 mm 0.0 W/m2 CLR
21:03 10.3 °C 8.4 °C 1020.5 hPa Calm     88 % 0.0 mm 0.0 W/m2 CLR
21:08 10.3 °C 8.4 °C 1020.5 hPa Calm     88 % 0.0 mm 0.0 W/m2 CLR
21:13 10.2 °C 8.3 °C 1020.5 hPa Calm     88 % 0.0 mm 0.0 W/m2 CLR
21:18 10.1 °C 8.2 °C 1020.5 hPa Calm     88 % 0.0 mm 0.0 W/m2 CLR
21:23 10.1 °C 8.2 °C 1020.5 hPa Calm     88 % 0.0 mm 0.0 W/m2 CLR
21:28 9.8 °C 7.9 °C 1020.5 hPa Calm     88 % 0.0 mm 0.0 W/m2 CLR
21:33 9.7 °C 7.8 °C 1020.5 hPa Calm     88 % 0.0 mm 0.0 W/m2 CLR
21:38 9.6 °C 7.9 °C 1020.5 hPa Calm     89 % 0.0 mm 0.0 W/m2 CLR
21:43 9.4 °C 7.7 °C 1020.5 hPa Calm     89 % 0.0 mm 0.0 W/m2 CLR
21:48 9.3 °C 7.6 °C 1020.5 hPa Calm     89 % 0.0 mm 0.0 W/m2 CLR
21:53 9.2 °C 7.7 °C 1020.5 hPa Calm     90 % 0.0 mm 0.0 W/m2 CLR
21:58 9.3 °C 7.8 °C 1020.5 hPa Calm     90 % 0.0 mm 0.0 W/m2 CLR
22:03 9.2 °C 7.5 °C 1020.5 hPa Calm     89 % 0.0 mm 0.0 W/m2 CLR
22:08 9.0 °C 7.3 °C 1020.5 hPa Calm     89 % 0.0 mm 0.0 W/m2 CLR
22:13 8.8 °C 7.1 °C 1020.5 hPa Calm     89 % 0.0 mm 0.0 W/m2 CLR
22:18 8.7 °C 7.2 °C 1020.5 hPa Calm     90 % 0.0 mm 0.0 W/m2 CLR
22:23 8.6 °C 7.1 °C 1020.5 hPa Calm     90 % 0.0 mm 0.0 W/m2 CLR
22:28 8.6 °C 7.0 °C 1020.5 hPa Calm     90 % 0.0 mm 0.0 W/m2 CLR
22:33 8.6 °C 7.2 °C 1020.5 hPa Calm     91 % 0.0 mm 0.0 W/m2 CLR
22:38 8.6 °C 7.2 °C 1020.5 hPa Calm     91 % 0.0 mm 0.0 W/m2 CLR
22:43 8.6 °C 7.2 °C 1020.5 hPa Calm     91 % 0.0 mm 0.0 W/m2 CLR
22:48 8.6 °C 7.2 °C 1020.5 hPa Calm     91 % 0.0 mm 0.0 W/m2 CLR
22:53 8.6 °C 7.2 °C 1020.2 hPa Calm     91 % 0.0 mm 0.0 W/m2 CLR
22:58 8.6 °C 7.2 °C 1020.2 hPa Calm     91 % 0.0 mm 0.0 W/m2 CLR
23:03 8.5 °C 7.1 °C 1020.2 hPa Calm     91 % 0.0 mm 0.0 W/m2 CLR
23:08 8.3 °C 6.7 °C 1020.2 hPa Calm     90 % 0.0 mm 0.0 W/m2 CLR
23:13 8.1 °C 6.6 °C 1020.2 hPa Calm     90 % 0.0 mm 0.0 W/m2 CLR
23:18 8.0 °C 6.6 °C 1020.2 hPa Calm     91 % 0.0 mm 0.0 W/m2 CLR
23:23 7.8 °C 6.3 °C 1020.2 hPa Calm     90 % 0.0 mm 0.0 W/m2 CLR
23:28 7.7 °C 6.3 °C 1020.2 hPa Calm     91 % 0.0 mm 0.0 W/m2 CLR
23:33 7.6 °C 6.2 °C 1020.2 hPa Calm     91 % 0.0 mm 0.0 W/m2 CLR
23:38 7.4 °C 6.0 °C 1020.2 hPa Calm     91 % 0.0 mm 0.0 W/m2 CLR
23:43 7.3 °C 5.9 °C 1020.2 hPa Calm     91 % 0.0 mm 0.0 W/m2 CLR
23:48 7.2 °C 5.8 °C 1020.2 hPa Calm     91 % 0.0 mm 0.0 W/m2 CLR
23:53 7.1 °C 5.7 °C 1020.2 hPa Calm     91 % 0.0 mm 0.0 W/m2 CLR
23:58 7.1 °C 5.7 °C 1020.2 hPa Calm     91 % 0.0 mm 0.0 W/m2 CLR
Lo Temps de Massalio
Compliments of Weather Underground - 1.25 mb